Time;durP1;ratioP1;P1;durP2;ratioP2;P2;SDS_P1;SDS_P2;PMS_P1;PMS_P2;Temp;Humidity;BMP_temperature;BMP_pressure;BME280_temperature;BME280_humidity;BME280_pressure;Samples;Min_cycle;Max_cycle;Signal;HPM_P1;HPM_P2
2024/02/21 00:00:48;;;;;;;16.20;4.47;;;;;;;10.31;58.92;100911.81;4133524;28;20276;-71
2024/02/21 00:02:50;;;;;;;11.70;5.50;;;;;;;10.22;59.24;100908.06;4142628;28;20525;-71
2024/02/21 00:04:51;;;;;;;13.07;5.07;;;;;;;10.14;59.45;100905.97;4138997;28;20034;-71
2024/02/21 00:06:51;;;;;;;13.52;4.43;;;;;;;10.30;58.96;100910.09;4134717;28;20041;-71
2024/02/21 00:08:51;;;;;;;13.27;4.53;;;;;;;10.28;59.15;100896.88;4139038;28;20030;-71
2024/02/21 00:10:52;;;;;;;13.63;4.32;;;;;;;10.36;58.84;100890.91;4146463;28;20029;-71
2024/02/21 00:12:53;;;;;;;20.10;5.28;;;;;;;10.50;58.31;100878.28;4146263;28;20022;-72
2024/02/21 00:14:53;;;;;;;12.93;5.10;;;;;;;10.40;58.58;100880.88;4133305;28;20111;-71
2024/02/21 00:16:54;;;;;;;16.10;4.40;;;;;;;10.48;58.36;100885.59;4133671;28;20035;-70
2024/02/21 00:18:54;;;;;;;10.37;4.10;;;;;;;10.47;58.48;100873.19;4130360;28;20277;-70
2024/02/21 00:20:56;;;;;;;10.77;4.40;;;;;;;10.49;58.16;100865.88;4136915;28;20028;-71
2024/02/21 00:22:56;;;;;;;14.32;4.70;;;;;;;10.43;58.59;100859.25;4132495;28;20053;-71
2024/02/21 00:24:58;;;;;;;13.55;4.40;;;;;;;10.49;58.36;100861.41;4137333;28;20030;-71
2024/02/21 00:26:58;;;;;;;12.40;5.40;;;;;;;10.50;58.32;100856.91;4135068;28;20488;-71
2024/02/21 00:28:58;;;;;;;11.15;4.25;;;;;;;10.34;58.81;100854.59;4134091;28;20030;-71
2024/02/21 00:30:59;;;;;;;15.57;4.50;;;;;;;10.17;59.22;100853.28;4133583;28;20018;-71
2024/02/21 00:33:00;;;;;;;14.07;4.38;;;;;;;10.34;58.82;100850.09;4134847;28;20261;-72
2024/02/21 00:35:01;;;;;;;13.70;4.97;;;;;;;10.15;59.27;100848.91;4140429;28;20038;-72
2024/02/21 00:37:01;;;;;;;11.32;4.30;;;;;;;10.25;58.88;100843.66;4137399;28;20419;-71
2024/02/21 00:39:02;;;;;;;15.70;4.43;;;;;;;10.17;59.09;100837.25;4138677;28;20030;-71
2024/02/21 00:41:02;;;;;;;11.88;4.63;;;;;;;10.23;58.89;100842.09;4141176;28;20442;-71
2024/02/21 00:43:03;;;;;;;9.60;4.30;;;;;;;10.26;58.95;100844.53;4143128;28;20041;-71
2024/02/21 00:45:04;;;;;;;12.18;3.90;;;;;;;10.24;58.89;100839.31;4136845;28;20022;-70
2024/02/21 00:47:04;;;;;;;;;;;;;;;10.20;58.81;100839.69;4141706;28;20161;-71
2024/02/21 00:49:05;;;;;;;13.73;4.23;;;;;;;10.26;58.81;100839.19;4136314;28;20394;-71
2024/02/21 00:51:05;;;;;;;13.00;5.43;;;;;;;10.26;58.74;100839.19;4140771;28;20625;-71
2024/02/21 00:53:06;;;;;;;13.17;4.50;;;;;;;10.30;58.74;100840.63;4145074;28;20141;-71
2024/02/21 00:55:07;;;;;;;9.87;3.60;;;;;;;10.27;58.79;100832.88;4142540;28;20273;-71
2024/02/21 00:57:07;;;;;;;8.93;3.47;;;;;;;10.24;58.92;100833.97;4143594;28;20292;-71
2024/02/21 00:59:07;;;;;;;12.77;4.35;;;;;;;10.21;58.78;100830.66;4137585;28;20641;-72
2024/02/21 01:01:08;;;;;;;10.25;3.92;;;;;;;10.26;58.31;100826.66;4141642;28;20406;-71
2024/02/21 01:03:08;;;;;;;9.00;3.95;;;;;;;10.34;58.30;100828.72;4139702;28;20548;-72
2024/02/21 01:05:09;;;;;;;10.45;4.03;;;;;;;10.38;58.29;100826.66;4147196;28;20108;-71
2024/02/21 01:07:09;;;;;;;10.20;4.30;;;;;;;10.42;58.23;100828.97;4138801;28;20033;-71
2024/02/21 01:09:11;;;;;;;14.00;4.27;;;;;;;10.42;58.00;100820.94;4140219;28;20112;-69
2024/02/21 01:11:11;;;;;;;9.98;3.92;;;;;;;10.48;58.05;100816.94;4136765;28;20277;-71
2024/02/21 01:13:12;;;;;;;10.95;3.92;;;;;;;10.54;57.72;100812.91;4141281;28;20021;-71
2024/02/21 01:15:12;;;;;;;9.60;4.65;;;;;;;10.49;57.86;100813.28;4138670;28;20166;-71
2024/02/21 01:17:13;;;;;;;13.17;4.00;;;;;;;10.56;57.66;100806.44;4141225;28;20026;-71
2024/02/21 01:19:13;;;;;;;10.50;3.35;;;;;;;10.57;57.66;100807.31;4135099;28;20297;-72
2024/02/21 01:21:13;;;;;;;12.75;3.97;;;;;;;10.42;57.77;100802.25;4133229;28;20435;-71
2024/02/21 01:23:14;;;;;;;9.93;3.50;;;;;;;10.37;57.87;100803.56;4129015;28;20067;-70
2024/02/21 01:25:14;;;;;;;11.32;3.90;;;;;;;10.35;58.05;100798.34;4134628;28;20285;-70
2024/02/21 01:27:15;;;;;;;13.73;3.67;;;;;;;10.49;57.42;100780.34;4131854;28;20494;-71
2024/02/21 01:29:15;;;;;;;10.02;4.10;;;;;;;10.44;57.61;100778.91;4130156;28;20038;-70
2024/02/21 01:31:15;;;;;;;10.70;4.32;;;;;;;10.57;57.36;100777.91;4138938;28;20081;-72
2024/02/21 01:33:16;;;;;;;10.38;3.95;;;;;;;10.52;57.60;100774.75;4133544;28;20060;-71
2024/02/21 01:35:16;;;;;;;12.23;3.87;;;;;;;10.33;58.02;100778.06;4132593;28;20057;-72
2024/02/21 01:37:17;;;;;;;10.05;3.67;;;;;;;10.38;57.82;100779.44;4144469;28;20076;-72
2024/02/21 01:39:17;;;;;;;9.60;3.30;;;;;;;10.54;57.44;100767.47;4132959;28;20037;-71
2024/02/21 01:41:17;;;;;;;10.13;3.80;;;;;;;10.68;57.15;100764.47;4129244;28;20042;-72
2024/02/21 01:43:20;;;;;;;11.90;3.90;;;;;;;10.52;57.57;100764.06;4137077;28;20535;-72
2024/02/21 01:45:21;;;;;;;11.05;4.07;;;;;;;10.53;57.54;100760.41;4138250;28;20057;-71
2024/02/21 01:47:21;;;;;;;10.13;3.72;;;;;;;10.67;57.10;100757.47;4145798;28;20030;-70
2024/02/21 01:49:22;;;;;;;11.65;3.67;;;;;;;10.56;57.67;100744.97;4132035;28;20038;-71
2024/02/21 01:51:24;;;;;;;8.10;3.17;;;;;;;10.74;57.31;100742.59;4132734;28;20053;-71
2024/02/21 01:53:42;;;;;;;9.95;3.47;;;;;;;10.82;57.26;100744.59;4139505;28;20483;-71
2024/02/21 01:55:45;;;;;;;11.27;3.17;;;;;;;10.75;57.28;100749.63;4141806;28;20072;-71
2024/02/21 01:57:46;;;;;;;9.52;2.88;;;;;;;10.86;57.12;100739.88;4137251;28;20041;-71
2024/02/21 01:59:47;;;;;;;9.48;3.03;;;;;;;10.79;57.52;100749.34;4138106;28;20064;-72
2024/02/21 02:01:48;;;;;;;12.90;4.32;;;;;;;10.83;57.28;100748.13;4141272;28;20084;-72
2024/02/21 02:03:49;;;;;;;9.85;3.10;;;;;;;10.83;57.63;100738.28;4133075;28;20041;-71
2024/02/21 02:05:50;;;;;;;9.05;3.13;;;;;;;10.92;57.38;100739.34;4132420;28;20029;-70
2024/02/21 02:07:51;;;;;;;9.32;3.08;;;;;;;10.88;57.54;100741.44;4132284;28;20031;-71
2024/02/21 02:09:51;;;;;;;8.45;2.92;;;;;;;11.00;57.53;100747.56;4139434;28;20050;-71
2024/02/21 02:11:51;;;;;;;9.23;3.15;;;;;;;10.87;58.01;100746.88;4132898;28;20018;-71
2024/02/21 02:13:52;;;;;;;7.70;2.45;;;;;;;10.84;58.27;100739.13;4136688;28;20021;-71
2024/02/21 02:15:52;;;;;;;9.73;3.17;;;;;;;10.88;58.58;100748.59;4135102;28;20133;-71
2024/02/21 02:17:53;;;;;;;10.32;3.17;;;;;;;10.84;59.00;100747.16;4136198;28;20034;-71
2024/02/21 02:19:53;;;;;;;7.90;2.97;;;;;;;10.81;58.97;100750.09;4142144;28;20064;-70
2024/02/21 02:22:00;;;;;;;11.23;3.13;;;;;;;10.85;59.11;100757.72;4135599;28;20277;-71
2024/02/21 02:24:01;;;;;;;8.50;2.97;;;;;;;10.79;59.34;100757.38;4129762;28;20037;-70
2024/02/21 02:26:01;;;;;;;9.70;3.05;;;;;;;10.70;59.66;100745.66;4131288;28;20026;-72
2024/02/21 02:28:04;;;;;;;9.00;3.28;;;;;;;10.56;60.30;100750.31;4133379;28;20028;-70
2024/02/21 02:30:05;;;;;;;11.07;3.55;;;;;;;10.52;60.49;100748.88;4127796;28;20038;-70
2024/02/21 02:32:06;;;;;;;8.57;3.33;;;;;;;10.56;60.37;100744.97;4133817;28;20022;-71
2024/02/21 02:34:06;;;;;;;10.90;4.03;;;;;;;10.60;60.41;100748.22;4139152;28;20758;-71
2024/02/21 02:36:06;;;;;;;12.65;3.47;;;;;;;10.57;60.83;100737.81;4142016;28;20034;-71
2024/02/21 02:38:07;;;;;;;10.68;3.63;;;;;;;10.57;60.85;100738.63;4143668;28;20021;-72
2024/02/21 02:40:08;;;;;;;9.93;3.35;;;;;;;10.82;60.25;100727.72;4140940;28;20045;-71
2024/02/21 02:42:09;;;;;;;7.32;2.90;;;;;;;10.81;60.38;100726.00;4143767;28;20106;-71
2024/02/21 02:44:09;;;;;;;7.95;2.85;;;;;;;10.90;60.12;100727.91;4141234;28;20124;-71
2024/02/21 02:46:09;;;;;;;8.00;3.00;;;;;;;10.88;60.17;100717.34;4141183;28;20041;-71
2024/02/21 02:48:10;;;;;;;11.33;4.03;;;;;;;10.76;60.47;100716.56;4148451;28;20332;-70
2024/02/21 02:50:11;;;;;;;7.57;3.08;;;;;;;10.84;60.48;100715.06;4138938;28;20288;-71
2024/02/21 02:52:11;;;;;;;;;;;;;;;10.81;60.36;100712.63;4138565;28;20034;-71
2024/02/21 02:54:12;;;;;;;13.43;3.40;;;;;;;10.53;60.83;100718.47;4141288;28;19937;-71
2024/02/21 02:56:16;;;;;;;8.15;3.25;;;;;;;10.69;60.79;100699.31;4133469;28;20034;-71
2024/02/21 02:58:16;;;;;;;8.32;3.15;;;;;;;10.63;60.76;100697.19;4134178;28;20030;-71
2024/02/21 03:00:17;;;;;;;10.45;3.20;;;;;;;10.42;61.22;100700.66;4133134;28;20105;-72
2024/02/21 03:02:18;;;;;;;9.32;3.50;;;;;;;10.49;61.25;100700.16;4133774;28;20041;-71
2024/02/21 03:04:19;;;;;;;8.15;3.25;;;;;;;10.57;61.21;100679.00;4131626;28;20050;-70
2024/02/21 03:06:19;;;;;;;9.43;3.67;;;;;;;10.55;61.10;100680.94;4139948;28;20030;-72
2024/02/21 03:08:22;;;;;;;8.50;2.63;;;;;;;10.60;61.11;100678.72;4139918;28;20539;-71
2024/02/21 03:10:24;;;;;;;;;;;;;;;10.76;60.90;100675.59;4140228;28;20541;-71
2024/02/21 03:12:27;;;;;;;;;;;;;;;10.74;61.10;100667.72;4141841;28;19979;-72
2024/02/21 03:14:30;;;;;;;9.32;4.00;;;;;;;10.57;61.00;100670.97;4133680;28;19925;-72
2024/02/21 03:16:30;;;;;;;9.20;3.28;;;;;;;10.61;60.98;100669.72;4131661;28;20034;-71
2024/02/21 03:18:31;;;;;;;7.43;2.80;;;;;;;10.73;60.56;100666.00;4157662;28;20092;-73
2024/02/21 03:20:32;;;;;;;11.85;3.45;;;;;;;10.70;60.57;100668.94;4157905;28;20041;-71
2024/02/21 03:22:32;;;;;;;11.45;2.80;;;;;;;10.64;60.96;100658.78;4134249;28;20105;-71
2024/02/21 03:24:33;;;;;;;8.48;3.25;;;;;;;10.69;60.72;100656.53;4141535;28;20030;-71
2024/02/21 03:26:33;;;;;;;10.98;4.18;;;;;;;10.59;60.89;100656.50;4145701;28;20041;-71
2024/02/21 03:28:34;;;;;;;9.37;2.77;;;;;;;10.66;60.33;100662.16;4149815;28;20038;-72
2024/02/21 03:30:34;;;;;;;7.70;2.93;;;;;;;10.71;60.16;100657.25;4146408;28;20285;-71
2024/02/21 03:32:35;;;;;;;9.80;3.35;;;;;;;10.64;60.37;100649.88;4153211;28;20296;-72
2024/02/21 03:34:36;;;;;;;6.60;2.53;;;;;;;10.62;60.22;100663.41;4146697;28;20038;-69
2024/02/21 03:36:37;;;;;;;11.82;3.95;;;;;;;10.26;61.13;100668.16;4147555;28;20248;-71
2024/02/21 03:38:37;;;;;;;8.98;3.53;;;;;;;10.38;60.76;100660.97;4144026;28;20093;-72
2024/02/21 03:40:38;;;;;;;9.03;3.50;;;;;;;10.49;60.52;100652.03;4149523;28;20025;-70
2024/02/21 03:42:38;;;;;;;7.20;2.95;;;;;;;10.50;60.23;100632.34;4151688;28;20018;-69
2024/02/21 03:44:39;;;;;;;9.77;3.00;;;;;;;10.23;61.21;100626.50;4137218;28;20105;-70
2024/02/21 03:46:39;;;;;;;9.48;3.30;;;;;;;10.38;60.58;100629.75;4135445;28;20028;-71
2024/02/21 03:48:40;;;;;;;8.27;2.80;;;;;;;10.37;60.46;100630.72;4139694;28;20027;-71
2024/02/21 03:50:40;;;;;;;8.05;2.97;;;;;;;10.18;61.02;100639.38;4131533;28;20030;-72
2024/02/21 03:52:41;;;;;;;11.63;3.30;;;;;;;10.26;60.77;100625.41;4137063;28;20447;-70
2024/02/21 03:54:41;;;;;;;8.85;3.00;;;;;;;10.32;60.72;100638.22;4135777;28;20288;-70
2024/02/21 03:56:41;;;;;;;7.32;3.55;;;;;;;10.20;61.19;100624.09;4137910;28;20395;-71
2024/02/21 03:58:42;;;;;;;9.83;3.50;;;;;;;10.18;61.14;100633.22;4137495;28;20628;-71
2024/02/21 04:00:42;;;;;;;13.60;4.22;;;;;;;10.15;61.17;100620.97;4138878;28;20274;-71
2024/02/21 04:02:43;;;;;;;8.27;3.22;;;;;;;10.14;61.08;100622.78;4139988;28;20438;-71
2024/02/21 04:04:48;;;;;;;11.05;3.30;;;;;;;10.12;61.12;100622.03;4138880;28;20106;-70
2024/02/21 04:06:51;;;;;;;12.38;3.72;;;;;;;9.97;61.49;100610.81;4132233;28;20123;-71
2024/02/21 04:08:51;;;;;;;9.98;3.63;;;;;;;10.03;61.01;100608.63;4137269;28;20487;-72
2024/02/21 04:10:52;;;;;;;8.93;3.30;;;;;;;10.00;61.23;100601.72;4137889;28;20022;-70
2024/02/21 04:12:52;;;;;;;11.80;4.10;;;;;;;9.75;61.75;100606.38;4135888;28;20030;-70
2024/02/21 04:14:53;;;;;;;12.52;3.33;;;;;;;9.89;61.37;100601.75;4138390;28;20749;-69
2024/02/21 04:16:53;;;;;;;12.48;3.50;;;;;;;9.86;61.45;100602.00;4138204;28;20436;-70
2024/02/21 04:18:54;;;;;;;11.88;3.67;;;;;;;9.85;61.49;100601.16;4141259;28;20038;-70
2024/02/21 04:20:54;;;;;;;10.85;3.00;;;;;;;9.85;61.29;100601.16;4133952;28;20030;-70
2024/02/21 04:22:54;;;;;;;14.20;3.67;;;;;;;9.92;60.89;100612.19;4134856;28;20422;-71
2024/02/21 04:24:55;;;;;;;8.30;3.45;;;;;;;9.95;60.77;100612.78;4138147;28;20026;-71
2024/02/21 04:26:55;;;;;;;9.95;2.90;;;;;;;10.00;60.49;100604.38;4141561;28;20386;-70
2024/02/21 04:28:56;;;;;;;8.93;2.90;;;;;;;10.04;60.44;100605.81;4146999;28;20124;-71
2024/02/21 04:30:56;;;;;;;10.02;2.90;;;;;;;10.05;60.63;100606.69;4146964;28;20052;-71
2024/02/21 04:32:57;;;;;;;9.27;3.40;;;;;;;9.93;60.82;100613.84;4147203;28;20728;-70
2024/02/21 04:34:57;;;;;;;9.32;2.92;;;;;;;9.92;60.78;100617.53;4145278;28;20521;-71
2024/02/21 04:36:58;;;;;;;8.38;2.92;;;;;;;10.01;60.63;100618.56;4145778;28;20431;-70
2024/02/21 04:38:58;;;;;;;9.68;3.08;;;;;;;9.98;60.69;100623.19;4147258;28;20056;-71
2024/02/21 04:40:59;;;;;;;9.70;3.78;;;;;;;10.03;60.56;100630.00;4147358;28;20396;-71
2024/02/21 04:42:59;;;;;;;6.57;2.85;;;;;;;10.02;60.43;100634.47;4147500;28;20025;-71
2024/02/21 04:45:00;;;;;;;6.80;2.85;;;;;;;10.08;60.33;100641.13;4146608;28;20479;-71
2024/02/21 04:47:00;;;;;;;7.75;2.80;;;;;;;9.99;60.46;100646.25;4147247;28;20805;-70
2024/02/21 04:49:01;;;;;;;9.00;3.63;;;;;;;10.09;60.28;100630.34;4136276;28;20042;-71
2024/02/21 04:51:01;;;;;;;9.20;4.00;;;;;;;9.96;60.36;100621.63;4136846;28;20028;-71
2024/02/21 04:53:02;;;;;;;7.53;2.88;;;;;;;9.87;60.71;100612.53;4139742;28;20415;-71
2024/02/21 04:55:02;;;;;;;11.52;4.20;;;;;;;9.86;60.92;100608.19;4132122;28;20165;-70
2024/02/21 04:57:03;;;;;;;14.25;3.78;;;;;;;9.83;61.02;100608.44;4130191;28;20542;-71
2024/02/21 04:59:04;;;;;;;11.90;3.88;;;;;;;9.88;60.75;100608.06;4130302;28;20487;-72
2024/02/21 05:01:04;;;;;;;12.52;4.10;;;;;;;9.62;61.67;100617.22;4129198;28;20529;-71
2024/02/21 05:03:06;;;;;;;8.20;3.00;;;;;;;9.80;61.07;100598.88;4130340;28;20135;-70
2024/02/21 05:05:08;;;;;;;11.13;3.72;;;;;;;9.70;61.26;100602.41;4130252;28;20030;-71
2024/02/21 05:07:10;;;;;;;10.13;3.58;;;;;;;9.81;61.08;100592.56;4131141;28;20026;-70
2024/02/21 05:09:12;;;;;;;8.63;3.78;;;;;;;9.77;61.16;100592.94;4133766;28;20492;-72
2024/02/21 05:11:12;;;;;;;10.63;3.65;;;;;;;9.73;61.19;100584.31;4138133;28;20030;-71
2024/02/21 05:13:12;;;;;;;10.68;4.38;;;;;;;9.70;61.23;100575.69;4138431;28;20088;-70
2024/02/21 05:15:13;;;;;;;8.43;4.03;;;;;;;9.67;61.47;100579.47;4149203;28;20030;-71
2024/02/21 05:17:15;;;;;;;9.80;4.18;;;;;;;9.73;61.18;100570.13;4149766;28;20033;-71
2024/02/21 05:19:15;;;;;;;8.93;3.60;;;;;;;9.65;61.22;100565.41;4149503;28;20018;-72
2024/02/21 05:21:16;;;;;;;8.85;3.72;;;;;;;9.70;61.09;100581.91;4146357;28;20668;-71
2024/02/21 05:23:16;;;;;;;10.05;4.47;;;;;;;9.63;61.25;100570.88;4145538;28;20037;-71
2024/02/21 05:25:16;;;;;;;8.13;3.50;;;;;;;9.68;61.07;100562.50;4135471;28;20019;-71
2024/02/21 05:27:17;;;;;;;10.70;3.67;;;;;;;9.54;61.34;100566.28;4145030;28;20284;-71
2024/02/21 05:29:17;;;;;;;8.30;3.45;;;;;;;9.41;61.63;100566.44;4144501;28;20152;-70
2024/02/21 05:31:18;;;;;;;11.10;3.75;;;;;;;9.43;61.54;100559.16;4145728;28;20044;-71
2024/02/21 05:33:21;;;;;;;11.77;4.25;;;;;;;9.47;61.43;100557.09;4141114;28;20498;-71
2024/02/21 05:35:26;;;;;;;13.43;3.60;;;;;;;9.37;61.85;100551.66;4146045;28;20033;-70
2024/02/21 05:37:26;;;;;;;11.57;4.63;;;;;;;9.31;61.84;100547.66;4145684;28;20117;-71
2024/02/21 05:39:29;;;;;;;14.43;3.58;;;;;;;9.31;61.99;100549.47;4137516;28;20105;-71
2024/02/21 05:41:29;;;;;;;9.20;3.58;;;;;;;9.16;62.36;100540.91;4131632;28;20045;-70
2024/02/21 05:43:30;;;;;;;11.23;3.53;;;;;;;9.21;62.12;100538.69;4138790;28;20030;-70
2024/02/21 05:45:30;;;;;;;10.27;3.72;;;;;;;9.31;61.71;100539.66;4133383;28;20272;-71
2024/02/21 05:47:30;;;;;;;8.60;3.78;;;;;;;9.31;61.80;100544.97;4145124;28;20108;-72
2024/02/21 05:49:31;;;;;;;15.55;4.25;;;;;;;9.24;61.86;100545.63;4144459;28;20077;-70
2024/02/21 05:51:35;;;;;;;12.33;3.97;;;;;;;9.23;62.04;100550.09;4145062;28;20644;-71
2024/02/21 05:53:36;;;;;;;13.68;3.92;;;;;;;9.26;61.90;100541.03;4145632;28;20275;-71
2024/02/21 05:55:37;;;;;;;12.88;4.43;;;;;;;9.15;62.11;100544.53;4144475;28;20584;-71
2024/02/21 05:57:37;;;;;;;12.80;3.28;;;;;;;9.25;61.92;100540.16;4145647;28;20069;-71
2024/02/21 05:59:40;;;;;;;14.30;3.67;;;;;;;9.25;61.75;100550.00;4145442;28;20032;-70
2024/02/21 06:01:40;;;;;;;8.82;3.63;;;;;;;9.17;62.08;100555.94;4144865;28;20344;-71
2024/02/21 06:03:41;;;;;;;10.50;4.82;;;;;;;9.04;62.59;100561.41;4145064;28;20468;-71
2024/02/21 06:05:41;;;;;;;12.30;4.32;;;;;;;9.07;62.58;100563.81;4145437;28;20125;-71
2024/02/21 06:07:42;;;;;;;15.83;4.37;;;;;;;9.10;62.36;100558.25;4144973;28;20018;-73
2024/02/21 06:09:42;;;;;;;13.33;4.83;;;;;;;9.10;62.31;100544.91;4145426;28;20260;-71
2024/02/21 06:11:43;;;;;;;11.07;4.50;;;;;;;9.02;62.59;100550.84;4143686;28;20261;-71
2024/02/21 06:13:43;;;;;;;10.85;3.75;;;;;;;9.06;62.40;100551.47;4145356;28;20522;-71
2024/02/21 06:15:44;;;;;;;11.18;4.07;;;;;;;9.07;62.54;100542.47;4145057;28;20030;-71
2024/02/21 06:17:44;;;;;;;7.13;3.50;;;;;;;9.10;62.37;100546.72;4144672;28;20037;-72
2024/02/21 06:19:45;;;;;;;9.33;4.20;;;;;;;9.16;62.08;100547.06;4145447;28;20061;-70
2024/02/21 06:21:46;;;;;;;10.15;3.65;;;;;;;9.14;62.35;100545.50;4144827;28;20269;-72
2024/02/21 06:23:46;;;;;;;7.85;4.00;;;;;;;9.14;62.28;100545.50;4146078;28;20049;-71
2024/02/21 06:25:47;;;;;;;8.33;3.67;;;;;;;9.10;62.45;100547.56;4157335;28;20581;-73
2024/02/21 06:27:47;;;;;;;;;;;;;;;9.06;62.47;100551.47;4155521;28;20296;-71
2024/02/21 06:29:48;;;;;;;10.13;4.33;;;;;;;9.10;62.18;100557.41;4145548;28;19910;-72
2024/02/21 06:31:49;;;;;;;10.30;3.53;;;;;;;9.02;62.50;100552.66;4144763;28;20076;-71
2024/02/21 06:33:49;;;;;;;13.25;4.13;;;;;;;8.98;62.71;100552.06;4137846;28;20041;-70
2024/02/21 06:35:52;;;;;;;7.00;3.60;;;;;;;8.99;62.61;100550.25;4128763;28;20033;-71
2024/02/21 06:37:53;;;;;;;9.45;4.22;;;;;;;9.04;62.42;100542.75;4145020;28;20026;-71
2024/02/21 06:39:53;;;;;;;11.20;4.43;;;;;;;8.99;62.62;100539.56;4137177;28;20261;-71
2024/02/21 06:41:54;;;;;;;10.85;5.35;;;;;;;8.96;62.69;100534.50;4128783;28;20463;-71
2024/02/21 06:43:54;;;;;;;9.25;4.90;;;;;;;8.94;62.80;100526.59;4129173;28;20117;-71
2024/02/21 06:45:56;;;;;;;13.67;5.37;;;;;;;8.94;62.85;100520.44;4129259;28;20076;-71
2024/02/21 06:47:57;;;;;;;14.80;6.15;;;;;;;8.88;63.03;100521.78;4129251;28;20415;-72
2024/02/21 06:49:57;;;;;;;12.30;5.80;;;;;;;8.91;63.02;100518.88;4127672;28;20061;-71
2024/02/21 06:51:58;;;;;;;11.07;5.27;;;;;;;8.90;62.95;100517.19;4129075;28;20054;-71
2024/02/21 06:53:58;;;;;;;12.07;4.78;;;;;;;8.92;63.08;100517.03;4127780;28;20274;-71
2024/02/21 06:55:59;;;;;;;12.17;4.60;;;;;;;8.97;62.91;100520.22;4129041;28;20034;-71
2024/02/21 06:57:59;;;;;;;11.52;4.57;;;;;;;8.98;63.02;100511.19;4129172;28;20033;-71
2024/02/21 06:59:59;;;;;;;10.67;4.70;;;;;;;8.99;62.98;100520.91;4128977;28;20121;-71
2024/02/21 07:02:00;;;;;;;10.85;5.53;;;;;;;8.96;63.03;100514.00;4133185;28;20801;-71
2024/02/21 07:04:01;;;;;;;12.43;4.72;;;;;;;9.04;62.75;100521.41;4130492;28;20136;-71
2024/02/21 07:06:02;;;;;;;10.75;4.80;;;;;;;9.04;62.86;100513.41;4134359;28;20318;-73
2024/02/21 07:08:03;;;;;;;11.80;5.00;;;;;;;8.97;62.91;100521.03;4147293;28;20023;-73
2024/02/21 07:10:16;;;;;;;;;;;;;;;9.21;62.49;100518.22;4149249;28;20033;-71
2024/02/21 07:12:18;;;;;;;10.50;4.70;;;;;;;9.08;62.61;100517.50;4149866;28;19909;-72
2024/02/21 07:14:29;;;;;;;8.68;4.32;;;;;;;9.32;62.12;100513.81;4149643;28;20022;-72
2024/02/21 07:16:32;;;;;;;6.90;3.80;;;;;;;9.41;61.84;100513.06;4149380;28;20022;-71
2024/02/21 07:18:39;;;;;;;9.07;4.15;;;;;;;9.48;61.53;100505.41;4148477;28;20027;-71
2024/02/21 07:20:41;;;;;;;7.93;3.58;;;;;;;9.49;61.90;100513.28;4134163;28;20030;-71
2024/02/21 07:22:41;;;;;;;8.57;4.10;;;;;;;9.39;62.01;100515.00;4132653;28;20030;-71
2024/02/21 07:24:42;;;;;;;9.40;4.37;;;;;;;9.56;61.71;100510.09;4132321;28;20038;-71
2024/02/21 07:26:45;;;;;;;9.98;4.47;;;;;;;9.34;62.30;100511.88;4130869;28;20360;-71
2024/02/21 07:28:46;;;;;;;13.10;5.00;;;;;;;9.15;62.94;100508.06;4131548;28;20030;-72
2024/02/21 07:30:46;;;;;;;12.18;5.38;;;;;;;9.32;62.52;100513.81;4131549;28;20152;-72
2024/02/21 07:32:51;;;;;;;10.47;5.37;;;;;;;9.16;62.82;100511.56;4138434;28;20049;-71
2024/02/21 07:34:52;;;;;;;10.27;4.85;;;;;;;9.14;63.08;100506.34;4139711;28;20850;-71
2024/02/21 07:36:52;;;;;;;9.10;4.65;;;;;;;9.40;62.33;100499.88;4136938;28;20022;-72
2024/02/21 07:38:52;;;;;;;10.15;4.05;;;;;;;9.42;62.06;100493.44;4147972;28;20026;-71
2024/02/21 07:40:54;;;;;;;10.07;3.97;;;;;;;9.54;61.75;100491.56;4146578;28;20544;-71
2024/02/21 07:42:54;;;;;;;12.38;4.28;;;;;;;9.42;61.83;100485.41;4148635;28;20044;-72
2024/02/21 07:44:56;;;;;;;10.37;3.77;;;;;;;9.47;61.69;100485.03;4147714;28;20022;-71
2024/02/21 07:46:57;;;;;;;9.65;3.50;;;;;;;9.45;61.62;100479.81;4148139;28;20265;-71
2024/02/21 07:48:57;;;;;;;10.25;3.53;;;;;;;9.50;60.99;100480.28;4155696;28;20026;-72
2024/02/21 07:50:57;;;;;;;10.20;3.20;;;;;;;9.71;60.84;100473.28;4156460;28;20018;-71
2024/02/21 07:52:58;;;;;;;13.33;4.17;;;;;;;9.81;60.25;100472.41;4154694;28;20383;-71
2024/02/21 07:54:58;;;;;;;8.05;3.63;;;;;;;9.74;60.47;100476.53;4157101;28;20276;-71
2024/02/21 07:57:00;;;;;;;12.25;3.70;;;;;;;9.72;60.13;100475.84;4157582;28;20030;-71
2024/02/21 07:59:00;;;;;;;10.13;3.50;;;;;;;9.92;59.80;100475.97;4158228;28;20036;-71
2024/02/21 08:01:01;;;;;;;12.73;3.85;;;;;;;9.91;59.87;100477.78;4158749;28;20390;-70
2024/02/21 08:03:01;;;;;;;10.23;3.92;;;;;;;9.97;59.74;100474.59;4155524;28;20736;-71
2024/02/21 08:05:03;;;;;;;10.23;3.30;;;;;;;10.09;59.53;100472.72;4152431;28;20033;-71
2024/02/21 08:07:04;;;;;;;9.30;4.03;;;;;;;10.18;59.29;100470.22;4149036;28;20258;-71
2024/02/21 08:09:04;;;;;;;8.45;3.35;;;;;;;10.17;59.49;100473.88;4147413;28;20049;-71
2024/02/21 08:11:04;;;;;;;12.00;3.90;;;;;;;9.98;59.81;100486.13;4145829;28;20026;-71
2024/02/21 08:13:06;;;;;;;11.50;3.40;;;;;;;10.03;59.55;100467.88;4146862;28;20022;-72
2024/02/21 08:15:08;;;;;;;15.27;4.53;;;;;;;9.99;59.18;100469.13;4147077;28;20041;-71
2024/02/21 08:17:08;;;;;;;11.40;4.10;;;;;;;9.93;59.40;100481.19;4146738;28;20038;-72
2024/02/21 08:19:11;;;;;;;8.25;3.08;;;;;;;10.16;59.15;100467.66;4147110;28;20120;-71
2024/02/21 08:21:11;;;;;;;12.38;3.42;;;;;;;10.11;59.28;100473.41;4146279;28;20041;-72
2024/02/21 08:23:12;;;;;;;14.00;4.45;;;;;;;10.35;58.57;100464.28;4146839;28;20640;-70
2024/02/21 08:25:12;;;;;;;11.80;3.80;;;;;;;10.31;58.70;100452.13;4145604;28;20083;-72
2024/02/21 08:27:13;;;;;;;12.63;3.78;;;;;;;10.08;58.71;100457.66;4146485;28;20026;-71
2024/02/21 08:29:13;;;;;;;11.63;4.40;;;;;;;10.26;58.30;100459.72;4146493;28;20452;-71
2024/02/21 08:31:20;;;;;;;10.85;3.70;;;;;;;10.13;58.01;100463.44;4145974;28;20340;-73
2024/02/21 08:33:24;;;;;;;11.90;4.35;;;;;;;10.23;57.95;100463.53;4146310;28;20113;-71
2024/02/21 08:35:24;;;;;;;12.80;3.50;;;;;;;10.43;57.82;100466.31;4146051;28;20037;-71
2024/02/21 08:37:27;;;;;;;9.77;3.08;;;;;;;10.60;57.23;100448.78;4146040;28;20076;-71
2024/02/21 08:39:30;;;;;;;12.57;3.35;;;;;;;10.71;57.00;100443.34;4146409;28;20674;-71
2024/02/21 08:41:31;;;;;;;12.77;3.75;;;;;;;10.57;57.16;100441.88;4146118;28;20025;-71
2024/02/21 08:43:32;;;;;;;8.57;2.95;;;;;;;10.95;56.46;100441.28;4146038;28;20029;-72
2024/02/21 08:45:33;;;;;;;13.30;4.32;;;;;;;10.90;56.66;100441.69;4146165;28;20033;-71
2024/02/21 08:47:35;;;;;;;11.88;3.03;;;;;;;11.14;55.91;100432.47;4146157;28;20022;-71
2024/02/21 08:49:35;;;;;;;10.73;3.38;;;;;;;11.00;56.35;100426.50;4144795;28;20060;-71
2024/02/21 08:51:36;;;;;;;11.07;3.72;;;;;;;11.23;55.83;100426.28;4145916;28;20107;-71
2024/02/21 08:53:38;;;;;;;11.77;3.60;;;;;;;10.93;56.25;100434.25;4146328;28;20026;-73
2024/02/21 08:55:38;;;;;;;15.05;3.78;;;;;;;10.97;56.49;100436.66;4145934;28;20404;-71
2024/02/21 08:57:38;;;;;;;8.35;3.00;;;;;;;10.87;56.49;100425.91;4145844;28;20105;-72
2024/02/21 08:59:39;;;;;;;8.27;3.65;;;;;;;11.24;55.62;100417.25;4145992;28;20029;-70
2024/02/21 09:01:40;;;;;;;;;;;;;;;11.18;55.13;100417.81;4146340;28;20494;-71
2024/02/21 09:03:40;;;;;;;10.73;3.43;;;;;;;11.24;55.80;100418.09;4145989;28;19983;-71
2024/02/21 09:05:41;;;;;;;7.43;2.78;;;;;;;11.24;55.64;100418.09;4146243;28;20429;-72
2024/02/21 09:07:41;;;;;;;11.50;3.15;;;;;;;11.23;55.55;100416.41;4144706;28;20033;-71
2024/02/21 09:09:42;;;;;;;6.05;2.58;;;;;;;11.49;54.83;100412.31;4145972;28;20022;-71
2024/02/21 09:11:42;;;;;;;8.90;3.28;;;;;;;11.27;55.08;100405.44;4143838;28;20029;-71
2024/02/21 09:13:43;;;;;;;10.00;2.90;;;;;;;11.20;55.24;100405.13;4145904;28;20041;-73
2024/02/21 09:15:43;;;;;;;17.02;6.60;;;;;;;11.22;55.25;100406.69;4146168;28;20037;-72
2024/02/21 09:17:44;;;;;;;16.20;7.28;;;;;;;11.39;54.94;100410.50;4145661;28;20029;-72
2024/02/21 09:19:44;;;;;;;13.20;5.80;;;;;;;11.15;55.54;100416.25;4145795;28;20137;-71
2024/02/21 09:21:45;;;;;;;12.18;4.63;;;;;;;11.12;55.40;100410.34;4145652;28;20033;-71